Aérodrome :
LOGIN :

S'inscrire | Disclaimer

   EN    FR    IT 

 










Légende :    VFR   VFR Marginal   IFR   IFR Intensif   IFR Très Intensif
Visi : 
Plafond : 
>= 8 km
>= 3000ft
5 à 8 km
1000 à 3000 ft
1500m à 5 km
500 à 1000 ft
800 à 1500m
200 à 500 ft
< 800m
< 200 ft
Symboles :   Orages  Brouillard  Fortes neiges  Fortes précipitations  Vent > 20 kt
SIGMETs :   Divers  Orages  Givrage  Turbulence  Onde Orograph.  Cendres Volcan.






- Altitude de l'aérodrome : 468 ft
- Code IATA : GRO


LEGE - Girona Costa Brava

DERNIER METAR :
  • 071430Z 19007KT CAVOK 16/08 Q1021

METARs EXPIRÉS :
  • 071400Z 19006KT CAVOK 16/09 Q1021
  • 071330Z 18005KT 150V210 CAVOK 16/09 Q1021
  • 071300Z 17006KT 140V200 CAVOK 16/09 Q1021
  • 071230Z 18005KT 160V220 CAVOK 15/09 Q1022
  • 071200Z 20003KT 160V250 CAVOK 15/09 Q1022

TAF TAF LEGE
Valide du 07 à 12h jusqu'au 08 à 12h UTC


071100Z 0712/0812 VRB04KT 9999 FEW040 TX17/0713Z TN03/0806Z
TEMPO 0712/0716 18009KT
TEMPO 0720/0808 2000 BR BKN010
PROB40
TEMPO 0800/0807 0150 FG VV001



MET'MAP, la Météo Aéronautique d'un coup d'oeil ! - Copyright ORBIFLY Décembre 2007 - Disclaimer

ORBIFLY MET'MAP TEAM :

Programmation & Développement : Alexandra Zaïnal
Sur une idée originale de : Baudouin d'Aumeries
Assistance à la programmation : Marc-Olivier Méhu
Soutien technique & logistique : Manuel Goepfert

Contact : metmap@orbifly.com




SOURCES & CREDITS :

   NOAA